Time;durP1;ratioP1;P1;durP2;ratioP2;P2;SDS_P1;SDS_P2;PMS_P1;PMS_P2;Temp;Humidity;BMP_temperature;BMP_pressure;BME280_temperature;BME280_humidity;BME280_pressure;Samples;Min_cycle;Max_cycle;Signal;HPM_P1;HPM_P2
2022/04/27 00:00:36;;;;;;;11.40;5.90;;;8.40;99.90;;;;;;4876004;29;20235;-61
2022/04/27 00:03:06;;;;;;;7.60;5.23;;;8.40;99.90;;;;;;4868804;29;20260;-60
2022/04/27 00:05:34;;;;;;;7.40;5.97;;;8.30;99.90;;;;;;4863311;29;20785;-60
2022/04/27 00:08:02;;;;;;;9.27;6.40;;;8.40;99.90;;;;;;4874202;29;20698;-59
2022/04/27 00:10:30;;;;;;;9.23;5.80;;;8.40;99.90;;;;;;4880436;29;20249;-59
2022/04/27 00:13:00;;;;;;;10.43;6.40;;;8.40;99.90;;;;;;4867952;29;20250;-60
2022/04/27 00:15:28;;;;;;;9.90;5.97;;;8.40;99.90;;;;;;4868166;29;20240;-59
2022/04/27 00:17:56;;;;;;;11.27;5.87;;;8.40;99.90;;;;;;4880547;29;20241;-60
2022/04/27 00:20:25;;;;;;;9.70;5.93;;;8.40;99.90;;;;;;4876464;29;20237;-60
2022/04/27 00:22:53;;;;;;;8.37;6.20;;;8.40;99.90;;;;;;4868037;29;20594;-60
2022/04/27 00:25:23;;;;;;;6.57;5.97;;;8.40;99.90;;;;;;4862858;29;20268;-60
2022/04/27 00:27:51;;;;;;;8.67;6.00;;;8.30;99.90;;;;;;4871719;29;20594;-59
2022/04/27 00:30:21;;;;;;;8.43;6.13;;;8.30;99.90;;;;;;4878710;29;20244;-60
2022/04/27 00:32:49;;;;;;;8.87;6.00;;;8.20;99.90;;;;;;4868865;29;20238;-60
2022/04/27 00:35:17;;;;;;;11.33;7.27;;;8.30;99.90;;;;;;4861300;29;20242;-59
2022/04/27 00:37:45;;;;;;;11.13;7.10;;;8.30;99.90;;;;;;4870326;29;20253;-60
2022/04/27 00:40:14;;;;;;;10.50;7.13;;;8.20;99.90;;;;;;4878242;29;20756;-60
2022/04/27 00:42:45;;;;;;;9.23;6.87;;;8.20;99.90;;;;;;4867493;29;20242;-59
2022/04/27 00:45:13;;;;;;;9.40;7.00;;;8.20;99.90;;;;;;4865813;29;20244;-60
2022/04/27 00:47:43;;;;;;;11.70;7.40;;;8.40;99.90;;;;;;4876867;29;20705;-60
2022/04/27 00:50:11;;;;;;;10.33;7.60;;;8.40;99.90;;;;;;4876857;29;20246;-60
2022/04/27 00:52:40;;;;;;;8.40;6.40;;;8.30;99.90;;;;;;4867274;29;20664;-60
2022/04/27 00:55:10;;;;;;;10.00;6.70;;;8.30;99.90;;;;;;4860427;29;20271;-61
2022/04/27 00:57:40;;;;;;;7.50;6.67;;;8.40;99.90;;;;;;4868809;29;20334;-59
2022/04/27 01:00:09;;;;;;;9.40;7.23;;;8.40;99.90;;;;;;4878085;29;20713;-60
2022/04/27 01:02:37;;;;;;;11.30;7.40;;;8.40;99.90;;;;;;4865709;29;20238;-59
2022/04/27 01:05:09;;;;;;;11.47;6.90;;;8.40;99.90;;;;;;4859805;29;20325;-61
2022/04/27 01:07:38;;;;;;;8.63;6.90;;;8.40;99.90;;;;;;4871112;29;20242;-59
2022/04/27 01:10:08;;;;;;;9.43;6.63;;;8.40;99.90;;;;;;4876599;29;20239;-60
2022/04/27 01:12:39;;;;;;;10.50;7.63;;;8.40;99.90;;;;;;4887972;29;20249;-60
2022/04/27 01:15:13;;;;;;;8.17;6.87;;;8.40;99.90;;;;;;4875438;29;20284;-60
2022/04/27 01:17:41;;;;;;;9.40;7.67;;;8.40;99.90;;;;;;4870587;29;20267;-60
2022/04/27 01:20:11;;;;;;;9.20;7.13;;;8.40;99.90;;;;;;4869535;29;20257;-59
2022/04/27 01:22:41;;;;;;;8.87;8.00;;;8.40;99.90;;;;;;4869214;29;20234;-60
2022/04/27 01:25:09;;;;;;;9.00;8.10;;;8.40;99.90;;;;;;4879533;29;20242;-59
2022/04/27 01:27:42;;;;;;;11.37;7.40;;;8.30;99.90;;;;;;4871287;29;20236;-59
2022/04/27 01:30:11;;;;;;;10.67;7.40;;;8.30;99.90;;;;;;4877517;29;20240;-59
2022/04/27 01:32:39;;;;;;;11.17;7.43;;;8.30;99.90;;;;;;4865241;29;20321;-59
2022/04/27 01:35:08;;;;;;;11.00;7.40;;;8.30;99.90;;;;;;4859267;29;20261;-60
2022/04/27 01:40:23;;;;;;;9.27;7.40;;;8.30;99.90;;;;;;4878077;29;20792;-59
2022/04/27 01:42:51;;;;;;;12.30;7.37;;;8.20;99.90;;;;;;4876692;29;20234;-59
2022/04/27 01:45:20;;;;;;;11.90;7.87;;;8.20;99.90;;;;;;4875082;29;20257;-60
2022/04/27 01:47:48;;;;;;;8.47;7.17;;;8.20;99.90;;;;;;4879030;29;20635;-59
2022/04/27 01:50:16;;;;;;;7.80;7.00;;;8.30;99.90;;;;;;4877357;29;20238;-59
2022/04/27 01:55:31;;;;;;;11.37;7.53;;;8.30;99.90;;;;;;4877989;29;20286;-60
2022/04/27 01:58:00;;;;;;;13.73;7.67;;;8.30;99.90;;;;;;4878876;29;20238;-59
2022/04/27 02:00:30;;;;;;;9.83;7.20;;;8.20;99.90;;;;;;4862002;29;20724;-59
2022/04/27 02:02:59;;;;;;;10.33;7.93;;;8.20;99.90;;;;;;4865202;29;20242;-60
2022/04/27 02:05:27;;;;;;;8.93;7.90;;;8.20;99.90;;;;;;4861737;29;20627;-60
2022/04/27 02:07:55;;;;;;;9.77;7.17;;;8.20;99.90;;;;;;4867799;29;20253;-59
2022/04/27 02:10:24;;;;;;;9.70;8.07;;;8.20;99.90;;;;;;4874135;29;20253;-61
2022/04/27 02:12:53;;;;;;;11.93;7.93;;;8.20;99.90;;;;;;4864778;29;20242;-60
2022/04/27 02:15:24;;;;;;;8.13;7.23;;;8.20;99.90;;;;;;4864567;29;20238;-59
2022/04/27 02:18:06;;;;;;;11.17;7.70;;;8.30;99.90;;;;;;4875000;29;20262;-59
2022/04/27 02:20:34;;;;;;;10.37;7.53;;;8.20;99.90;;;;;;4878976;29;20261;-60
2022/04/27 02:23:02;;;;;;;12.27;8.30;;;8.20;99.90;;;;;;4869543;29;20698;-59
2022/04/27 02:25:30;;;;;;;10.37;8.07;;;8.20;99.90;;;;;;4872287;29;20238;-59
2022/04/27 02:28:00;;;;;;;9.60;8.20;;;8.30;99.90;;;;;;4865882;29;20640;-59
2022/04/27 02:30:28;;;;;;;9.87;8.57;;;8.20;99.90;;;;;;4859509;29;20320;-59
2022/04/27 02:32:57;;;;;;;9.67;8.53;;;8.20;99.90;;;;;;4866102;29;20246;-59
2022/04/27 02:35:25;;;;;;;13.03;8.87;;;8.10;99.90;;;;;;4858597;29;20238;-60
2022/04/27 02:37:53;;;;;;;11.73;9.20;;;8.10;99.90;;;;;;4868978;29;20300;-60
2022/04/27 02:40:21;;;;;;;9.33;7.87;;;8.00;99.90;;;;;;4873542;29;20586;-60
2022/04/27 02:42:52;;;;;;;11.00;8.70;;;8.10;99.90;;;;;;4864357;29;20234;-59
2022/04/27 02:45:22;;;;;;;10.60;7.97;;;8.10;99.90;;;;;;4861229;29;20325;-60
2022/04/27 02:47:50;;;;;;;9.63;8.77;;;8.10;99.90;;;;;;4874889;29;20327;-59
2022/04/27 02:53:05;;;;;;;11.17;8.67;;;8.10;99.90;;;;;;4883664;29;20741;-60
2022/04/27 02:55:35;;;;;;;10.20;8.70;;;8.20;99.90;;;;;;4886872;29;20239;-60
2022/04/27 02:58:04;;;;;;;12.03;9.23;;;8.10;99.90;;;;;;4882738;29;20252;-60
2022/04/27 03:00:59;;;;;;;14.80;10.00;;;8.10;99.90;;;;;;4898623;29;20242;-60
2022/04/27 03:03:27;;;;;;;10.07;8.83;;;8.10;99.90;;;;;;4891802;29;20249;-60
2022/04/27 03:05:57;;;;;;;12.87;9.20;;;8.10;99.90;;;;;;4888938;29;20246;-59
2022/04/27 03:08:27;;;;;;;12.20;8.93;;;8.00;99.90;;;;;;4886356;29;20237;-60
2022/04/27 03:10:55;;;;;;;12.10;9.10;;;8.00;99.90;;;;;;4885524;29;20248;-60
2022/04/27 03:13:34;;;;;;;15.23;10.20;;;8.10;99.90;;;;;;4889841;29;20248;-59
2022/04/27 03:16:13;;;;;;;11.57;8.77;;;7.90;99.90;;;;;;4888628;29;20241;-59
2022/04/27 03:18:42;;;;;;;9.60;8.43;;;7.90;99.90;;;;;;4882655;29;20241;-60
2022/04/27 03:21:11;;;;;;;9.90;8.40;;;7.80;99.90;;;;;;4891057;29;20241;-60
2022/04/27 03:23:39;;;;;;;13.73;9.47;;;7.80;99.90;;;;;;4890881;29;20245;-59
2022/04/27 03:26:09;;;;;;;11.23;8.93;;;7.80;99.90;;;;;;4889854;29;20249;-59
2022/04/27 03:28:37;;;;;;;9.53;8.53;;;7.80;99.90;;;;;;4886101;29;20246;-60
2022/04/27 03:31:05;;;;;;;10.60;8.07;;;7.70;99.90;;;;;;4881135;29;20244;-60
2022/04/27 03:33:40;;;;;;;10.70;8.50;;;7.70;99.90;;;;;;4890622;29;20247;-59
2022/04/27 03:36:09;;;;;;;10.70;8.63;;;7.70;99.90;;;;;;4897360;29;20244;-60
2022/04/27 03:38:39;;;;;;;10.40;9.10;;;7.70;99.90;;;;;;4896525;29;20301;-59
2022/04/27 03:41:08;;;;;;;10.37;8.10;;;7.70;99.90;;;;;;4893749;29;20248;-59
2022/04/27 03:43:38;;;;;;;10.73;8.47;;;7.70;99.90;;;;;;4886317;29;20765;-59
2022/04/27 03:46:07;;;;;;;9.63;8.20;;;7.60;99.90;;;;;;4884477;29;20242;-60
2022/04/27 03:48:41;;;;;;;10.23;7.50;;;7.50;99.90;;;;;;4888576;29;20232;-60
2022/04/27 03:51:09;;;;;;;8.73;7.73;;;7.50;99.90;;;;;;4885355;29;20241;-59
2022/04/27 03:53:38;;;;;;;9.40;8.40;;;7.60;99.90;;;;;;4883785;29;20244;-60
2022/04/27 03:56:07;;;;;;;9.33;8.23;;;7.50;99.90;;;;;;4883080;29;20246;-61
2022/04/27 03:58:37;;;;;;;9.47;7.73;;;7.50;99.90;;;;;;4888502;29;20264;-60
2022/04/27 04:01:05;;;;;;;9.87;8.20;;;7.50;99.90;;;;;;4896264;29;20237;-59
2022/04/27 04:03:33;;;;;;;9.43;8.50;;;7.50;99.90;;;;;;4884806;29;20237;-59
2022/04/27 04:06:03;;;;;;;8.67;7.13;;;7.40;99.90;;;;;;4886299;29;20324;-59
2022/04/27 04:08:40;;;;;;;10.67;8.23;;;7.40;99.90;;;;;;4892141;29;20245;-60
2022/04/27 04:11:09;;;;;;;8.67;7.77;;;7.30;99.90;;;;;;4890561;29;20301;-59
2022/04/27 04:14:03;;;;;;;9.07;8.03;;;7.40;99.90;;;;;;4887408;29;20324;-59
2022/04/27 04:17:01;;;;;;;8.33;6.93;;;7.40;99.90;;;;;;4869918;29;20237;-59
2022/04/27 04:19:32;;;;;;;12.30;8.67;;;7.40;99.90;;;;;;4871715;29;20242;-59
2022/04/27 04:22:20;;;;;;;10.13;7.83;;;7.40;99.90;;;;;;4878784;29;20321;-59
2022/04/27 04:30:49;;;;;;;9.80;8.03;;;7.30;99.90;;;;;;4874711;29;20238;-59
2022/04/27 04:33:28;;;;;;;9.30;8.33;;;7.40;99.90;;;;;;4866423;29;20265;-59
2022/04/27 04:35:58;;;;;;;11.40;8.63;;;7.30;99.90;;;;;;4862560;29;20239;-59
2022/04/27 04:38:28;;;;;;;12.20;9.30;;;7.40;99.90;;;;;;4875340;29;20246;-59
2022/04/27 04:41:05;;;;;;;10.33;8.70;;;7.30;99.90;;;;;;4888191;29;20253;-60
2022/04/27 04:43:53;;;;;;;12.57;9.17;;;7.20;99.90;;;;;;4882817;29;20281;-60
2022/04/27 04:46:24;;;;;;;15.60;9.97;;;7.30;99.90;;;;;;4877001;29;20238;-59
2022/04/27 04:49:13;;;;;;;15.17;9.77;;;7.30;99.90;;;;;;4879120;29;20255;-60
2022/04/27 04:52:10;;;;;;;15.27;9.30;;;7.40;99.90;;;;;;4882804;29;20329;-60
2022/04/27 04:54:46;;;;;;;15.03;10.40;;;7.50;99.90;;;;;;4880464;29;20250;-59
2022/04/27 04:57:26;;;;;;;11.73;10.53;;;7.60;99.90;;;;;;4893351;29;20244;-59
2022/04/27 05:00:14;;;;;;;11.77;9.53;;;7.60;99.90;;;;;;4896061;29;20233;-59
2022/04/27 05:03:01;;;;;;;16.83;9.73;;;7.70;99.90;;;;;;4889502;29;20248;-59
2022/04/27 05:05:49;;;;;;;16.27;10.17;;;7.60;99.90;;;;;;4890350;29;20281;-59
2022/04/27 05:08:36;;;;;;;14.57;10.20;;;7.60;99.90;;;;;;4884384;29;20240;-60
2022/04/27 05:11:18;;;;;;;12.90;9.13;;;7.70;99.90;;;;;;4874853;29;20274;-59
2022/04/27 05:14:04;;;;;;;13.93;9.90;;;7.60;99.90;;;;;;4874067;29;20354;-59
2022/04/27 05:16:55;;;;;;;13.07;9.60;;;7.80;99.90;;;;;;4859157;29;20665;-59
2022/04/27 05:19:51;;;;;;;13.10;10.13;;;8.00;99.90;;;;;;4863702;29;20596;-59
2022/04/27 05:22:38;;;;;;;12.80;9.70;;;8.10;99.90;;;;;;4890125;29;20241;-60
2022/04/27 05:25:35;;;;;;;13.47;9.13;;;8.10;99.90;;;;;;4859698;29;20242;-60
2022/04/27 05:31:54;;;;;;;10.90;9.10;;;8.20;99.90;;;;;;4882506;29;20246;-59
2022/04/27 05:31:58;;;;;;;11.53;9.17;;;8.30;99.90;;;;;;4866912;29;20234;-60
2022/04/27 05:34:56;;;;;;;11.10;9.10;;;8.50;99.90;;;;;;4854800;29;20250;-61
2022/04/27 05:37:34;;;;;;;12.07;9.20;;;8.60;99.90;;;;;;4865412;29;20245;-60
2022/04/27 05:40:11;;;;;;;11.43;9.33;;;8.70;99.90;;;;;;4864990;29;20237;-59
2022/04/27 05:43:05;;;;;;;9.87;8.67;;;8.80;99.90;;;;;;4859397;29;20249;-59
2022/04/27 05:45:56;;;;;;;9.67;8.07;;;9.00;99.90;;;;;;4873200;29;20245;-60
2022/04/27 05:48:41;;;;;;;15.10;10.07;;;9.10;99.90;;;;;;4873181;29;20234;-60
2022/04/27 05:51:39;;;;;;;12.43;9.20;;;9.20;99.90;;;;;;4882247;29;20234;-60
2022/04/27 05:54:33;;;;;;;10.37;8.60;;;9.50;99.90;;;;;;4882848;29;20639;-61
2022/04/27 05:57:19;;;;;;;10.33;9.13;;;9.70;99.90;;;;;;4856419;29;20407;-61
2022/04/27 06:00:14;;;;;;;10.03;8.10;;;9.80;99.90;;;;;;4863465;29;20617;-60
2022/04/27 06:02:53;;;;;;;12.90;8.67;;;9.80;99.90;;;;;;4865125;29;20242;-60
2022/04/27 06:05:27;;;;;;;10.93;8.23;;;9.80;99.90;;;;;;4880218;29;20703;-62
2022/04/27 06:07:56;;;;;;;9.77;8.03;;;9.80;99.90;;;;;;4878646;29;20246;-61
2022/04/27 06:10:24;;;;;;;13.10;8.77;;;9.80;99.90;;;;;;4864284;29;20239;-60
2022/04/27 06:12:59;;;;;;;13.07;8.00;;;9.90;99.90;;;;;;4870318;29;20703;-61
2022/04/27 06:15:45;;;;;;;10.47;8.23;;;10.00;99.90;;;;;;4874587;29;20240;-61
2022/04/27 06:18:35;;;;;;;10.20;7.37;;;10.20;99.90;;;;;;4868594;29;20314;-60
2022/04/27 06:21:11;;;;;;;7.97;7.13;;;10.40;99.90;;;;;;4881825;29;20702;-60
2022/04/27 06:23:40;;;;;;;9.33;6.87;;;10.50;99.90;;;;;;4883087;29;20239;-62
2022/04/27 06:26:08;;;;;;;9.77;6.80;;;10.60;99.90;;;;;;4884225;29;20285;-60
2022/04/27 06:28:42;;;;;;;9.83;6.43;;;10.80;99.90;;;;;;4875570;29;20259;-60
2022/04/27 06:31:12;;;;;;;9.67;5.80;;;10.90;99.90;;;;;;4886359;29;20251;-60
2022/04/27 06:33:42;;;;;;;8.53;6.03;;;11.10;99.90;;;;;;4879336;29;20259;-61
2022/04/27 06:36:12;;;;;;;8.90;6.30;;;11.40;99.90;;;;;;4886071;29;20323;-61
2022/04/27 06:38:40;;;;;;;8.87;5.63;;;11.60;99.90;;;;;;4882074;29;20240;-60
2022/04/27 06:41:26;;;;;;;10.07;5.53;;;11.70;99.90;;;;;;4870285;29;20266;-60
2022/04/27 06:44:13;;;;;;;7.10;4.70;;;11.90;99.90;;;;;;4864634;29;20262;-60
2022/04/27 06:47:16;;;;;;;6.40;4.33;;;12.00;99.90;;;;;;4841477;29;20319;-61
2022/04/27 06:50:06;;;;;;;8.93;4.60;;;11.90;99.90;;;;;;4879886;29;20718;-60
2022/04/27 06:53:13;;;;;;;7.83;4.10;;;12.00;99.90;;;;;;4812034;29;20716;-60
2022/04/27 06:55:44;;;;;;;6.23;4.17;;;12.00;99.90;;;;;;4818759;29;20246;-60
2022/04/27 06:58:34;;;;;;;6.17;3.60;;;12.20;99.90;;;;;;4858229;29;20240;-60
2022/04/27 07:01:06;;;;;;;6.17;3.70;;;12.10;99.90;;;;;;4866369;29;20299;-62
2022/04/27 07:03:38;;;;;;;7.30;3.67;;;12.20;99.90;;;;;;4864082;29;20241;-60
2022/04/27 07:06:08;;;;;;;6.37;3.20;;;12.50;99.90;;;;;;4869486;29;20328;-62
2022/04/27 07:08:36;;;;;;;4.30;3.40;;;12.60;99.90;;;;;;4880099;29;20787;-61
2022/04/27 07:11:05;;;;;;;6.00;3.63;;;12.60;99.90;;;;;;4880378;29;20590;-61
2022/04/27 07:13:33;;;;;;;6.03;3.47;;;12.60;99.90;;;;;;4879022;29;20658;-62
2022/04/27 07:16:01;;;;;;;5.13;3.00;;;12.70;99.90;;;;;;4888188;29;20233;-62
2022/04/27 07:18:30;;;;;;;4.10;2.60;;;12.80;99.90;;;;;;4864186;29;20778;-61
2022/04/27 07:21:00;;;;;;;8.20;3.40;;;12.80;99.90;;;;;;4871126;29;20244;-61
2022/04/27 07:23:30;;;;;;;4.73;2.50;;;13.00;99.90;;;;;;4861402;29;20698;-61
2022/04/27 07:25:58;;;;;;;5.37;2.87;;;13.20;99.90;;;;;;4868550;29;20241;-61
2022/04/27 07:28:26;;;;;;;6.90;3.00;;;13.30;99.90;;;;;;4861094;29;20257;-61
2022/04/27 07:30:54;;;;;;;6.67;2.97;;;13.60;99.90;;;;;;4881394;29;20253;-61
2022/04/27 07:33:24;;;;;;;6.37;2.83;;;14.00;99.90;;;;;;4882689;29;20244;-61
2022/04/27 07:35:52;;;;;;;3.77;2.10;;;13.60;99.90;;;;;;4877145;29;20245;-61
2022/04/27 07:38:20;;;;;;;5.57;2.50;;;13.70;99.90;;;;;;4871558;29;20248;-61
2022/04/27 07:40:49;;;;;;;4.33;2.27;;;13.30;99.90;;;;;;4874750;29;20244;-61
2022/04/27 07:43:18;;;;;;;5.10;2.10;;;12.60;99.90;;;;;;4868003;29;20246;-61
2022/04/27 07:45:46;;;;;;;4.60;2.13;;;12.20;99.90;;;;;;4873198;29;20245;-61
2022/04/27 07:48:14;;;;;;;3.83;2.33;;;12.00;99.90;;;;;;4867892;29;20740;-61
2022/04/27 07:50:42;;;;;;;5.37;2.10;;;12.20;99.90;;;;;;4870013;29;20238;-61
2022/04/27 07:53:10;;;;;;;4.80;2.53;;;12.20;99.90;;;;;;4860931;29;20740;-61
2022/04/27 07:55:39;;;;;;;2.97;2.30;;;12.30;99.90;;;;;;4866581;29;20244;-61
2022/04/27 07:58:08;;;;;;;3.67;2.63;;;12.90;99.90;;;;;;4879399;29;20253;-61
2022/04/27 08:00:36;;;;;;;5.47;2.80;;;13.20;99.90;;;;;;4872603;29;20253;-63
2022/04/27 08:03:04;;;;;;;4.47;2.63;;;13.60;99.90;;;;;;4887284;29;20248;-62
2022/04/27 08:05:33;;;;;;;6.03;2.50;;;13.90;99.90;;;;;;4893195;29;20251;-61
2022/04/27 08:08:01;;;;;;;5.03;3.00;;;13.80;99.90;;;;;;4890570;29;20249;-61
2022/04/27 08:10:29;;;;;;;4.73;3.30;;;13.50;99.90;;;;;;4891022;29;20237;-61
2022/04/27 08:12:57;;;;;;;4.63;3.03;;;13.40;99.90;;;;;;4890177;29;20271;-61
2022/04/27 08:15:27;;;;;;;5.27;3.00;;;13.10;99.90;;;;;;4897471;29;20265;-61
2022/04/27 08:17:58;;;;;;;7.07;3.20;;;12.90;99.90;;;;;;4890178;29;20347;-61
2022/04/27 08:23:21;;;;;;;6.67;3.23;;;12.40;99.90;;;;;;4893379;29;20616;-61
2022/04/27 08:25:50;;;;;;;4.07;2.67;;;12.70;99.90;;;;;;4897564;29;20247;-61
2022/04/27 08:28:19;;;;;;;5.03;3.07;;;13.60;99.90;;;;;;4897629;29;20251;-61
2022/04/27 08:30:50;;;;;;;7.17;3.20;;;14.20;99.90;;;;;;4892571;29;20324;-62
2022/04/27 08:33:20;;;;;;;5.63;2.70;;;15.20;99.90;;;;;;4878562;29;20242;-61
2022/04/27 08:35:48;;;;;;;5.53;3.07;;;16.00;99.90;;;;;;4885833;29;20336;-62
2022/04/27 08:38:37;;;;;;;5.43;2.87;;;15.90;99.90;;;;;;4897240;29;20747;-61
2022/04/27 08:41:06;;;;;;;5.73;2.80;;;15.90;99.90;;;;;;4887893;29;20254;-62
2022/04/27 08:43:34;;;;;;;5.60;2.90;;;16.00;99.90;;;;;;4897452;29;20250;-61
2022/04/27 08:46:04;;;;;;;4.97;2.50;;;16.00;99.90;;;;;;4888003;29;20238;-61
2022/04/27 08:48:33;;;;;;;4.53;2.30;;;15.90;99.90;;;;;;4866512;29;20652;-62
2022/04/27 08:51:03;;;;;;;5.23;2.40;;;15.60;99.90;;;;;;4889352;29;20260;-62
2022/04/27 08:53:31;;;;;;;5.40;2.80;;;15.40;99.90;;;;;;4864294;29;20298;-62
2022/04/27 08:55:59;;;;;;;4.63;2.53;;;15.10;99.90;;;;;;4868499;29;20238;-62
2022/04/27 08:58:28;;;;;;;5.97;2.63;;;14.70;99.90;;;;;;4878229;29;20233;-62
2022/04/27 09:01:13;;;;;;;2.90;2.43;;;14.70;99.90;;;;;;4865335;29;20564;-62
2022/04/27 09:03:42;;;;;;;4.83;2.83;;;14.30;99.90;;;;;;4859526;29;20247;-62
2022/04/27 09:06:12;;;;;;;4.87;2.33;;;14.00;99.90;;;;;;4869615;29;20324;-62
2022/04/27 09:08:43;;;;;;;7.40;3.00;;;13.60;99.90;;;;;;4881127;29;20318;-62
2022/04/27 09:11:25;;;;;;;4.60;2.50;;;13.60;99.90;;;;;;4876755;29;20249;-62
2022/04/27 09:13:56;;;;;;;5.50;2.60;;;13.80;99.90;;;;;;4866259;29;20238;-62
2022/04/27 09:16:27;;;;;;;4.00;2.43;;;14.00;99.90;;;;;;4871825;29;20759;-61
2022/04/27 09:22:00;;;;;;;6.37;2.97;;;14.90;99.90;;;;;;4874416;29;20640;-62
2022/04/27 09:24:30;;;;;;;5.10;2.50;;;15.20;99.90;;;;;;4876527;29;20233;-62
2022/04/27 09:27:14;;;;;;;3.67;2.53;;;15.40;99.90;;;;;;4875861;29;20244;-62
2022/04/27 09:29:43;;;;;;;3.80;2.30;;;16.10;99.90;;;;;;4875419;29;20253;-63
2022/04/27 09:32:18;;;;;;;2.83;2.30;;;17.00;99.90;;;;;;4883278;29;20238;-62
2022/04/27 09:34:47;;;;;;;4.17;2.20;;;17.70;99.90;;;;;;4881623;29;20280;-62
2022/04/27 09:37:17;;;;;;;4.73;2.53;;;18.20;99.90;;;;;;4894965;29;20241;-62
2022/04/27 09:39:46;;;;;;;5.67;2.47;;;18.00;99.90;;;;;;4880263;29;20238;-62
2022/04/27 09:42:15;;;;;;;5.60;2.17;;;18.00;99.90;;;;;;4863252;29;20242;-62
2022/04/27 09:44:44;;;;;;;4.33;2.17;;;17.90;99.90;;;;;;4877378;29;20306;-62
2022/04/27 09:47:22;;;;;;;4.03;2.23;;;17.50;99.90;;;;;;4868713;29;20234;-62
2022/04/27 09:49:55;;;;;;;5.53;2.73;;;16.40;99.90;;;;;;4869089;29;20790;-63
2022/04/27 09:52:28;;;;;;;5.20;2.47;;;15.70;99.90;;;;;;4880242;29;20324;-62
2022/04/27 09:55:00;;;;;;;7.33;2.80;;;15.80;99.90;;;;;;4885083;29;20249;-62
2022/04/27 09:57:30;;;;;;;4.77;2.73;;;16.60;99.90;;;;;;4871141;29;20294;-62
2022/04/27 09:59:58;;;;;;;4.20;2.43;;;16.90;99.90;;;;;;4880917;29;20241;-62
2022/04/27 10:02:30;;;;;;;3.40;2.30;;;17.20;99.90;;;;;;4869277;29;20576;-62
2022/04/27 10:05:00;;;;;;;3.80;2.20;;;17.00;99.90;;;;;;4877006;29;20272;-62
2022/04/27 10:07:32;;;;;;;3.70;2.20;;;17.30;99.90;;;;;;4866686;29;20627;-62
2022/04/27 10:10:00;;;;;;;3.33;1.90;;;17.30;99.90;;;;;;4859497;29;20268;-62
2022/04/27 10:12:28;;;;;;;3.83;2.40;;;17.40;99.90;;;;;;4867030;29;20234;-62
2022/04/27 10:14:57;;;;;;;4.00;2.40;;;17.40;99.90;;;;;;4861720;29;20629;-62
2022/04/27 10:17:25;;;;;;;3.70;2.30;;;18.20;99.90;;;;;;4876749;29;20603;-62
2022/04/27 10:19:54;;;;;;;6.47;2.40;;;18.70;99.90;;;;;;4874981;29;20242;-62
2022/04/27 10:22:28;;;;;;;4.60;2.50;;;19.20;99.90;;;;;;4874793;29;20246;-62
2022/04/27 10:24:57;;;;;;;2.40;2.13;;;19.40;99.90;;;;;;4867701;29;20254;-62
2022/04/27 10:27:35;;;;;;;16.60;3.20;;;19.70;99.90;;;;;;4867399;29;20736;-63
2022/04/27 10:30:05;;;;;;;7.33;2.50;;;20.20;99.90;;;;;;4877502;29;20255;-62
2022/04/27 10:32:39;;;;;;;4.07;2.57;;;19.20;99.20;;;;;;4872994;29;20708;-62
2022/04/27 10:35:19;;;;;;;12.70;3.00;;;18.80;99.60;;;;;;4876167;29;20326;-62
2022/04/27 10:37:49;;;;;;;3.93;2.60;;;17.70;99.90;;;;;;4882097;29;20250;-62
2022/04/27 10:40:34;;;;;;;4.93;2.90;;;17.60;99.90;;;;;;4873142;29;20657;-62
2022/04/27 10:43:13;;;;;;;3.60;2.87;;;17.40;99.90;;;;;;4870580;29;20330;-62
2022/04/27 10:45:43;;;;;;;4.03;2.67;;;17.00;99.90;;;;;;4873618;29;20716;-62
2022/04/27 10:48:21;;;;;;;5.37;2.60;;;17.90;99.90;;;;;;4868196;29;20248;-62
2022/04/27 10:51:03;;;;;;;3.57;2.60;;;18.80;99.90;;;;;;4878062;29;20267;-62
2022/04/27 10:53:40;;;;;;;3.03;2.30;;;19.10;99.90;;;;;;4883142;29;20301;-62
2022/04/27 10:56:29;;;;;;;4.37;2.57;;;18.90;99.70;;;;;;4875243;29;20251;-62
2022/04/27 10:58:57;;;;;;;3.47;2.40;;;17.90;99.40;;;;;;4888367;29;20296;-62
2022/04/27 11:01:29;;;;;;;5.10;2.70;;;17.80;99.90;;;;;;4887224;29;23971;-63
2022/04/27 11:04:09;;;;;;;3.53;2.40;;;18.50;99.90;;;;;;4877294;29;20320;-63
2022/04/27 11:07:00;;;;;;;2.20;2.00;;;19.30;99.40;;;;;;4872572;29;20255;-63
2022/04/27 11:09:45;;;;;;;2.50;2.23;;;20.00;98.30;;;;;;4885533;29;20239;-62
2022/04/27 11:12:14;;;;;;;7.10;2.70;;;20.30;98.00;;;;;;4874130;29;20240;-62
2022/04/27 11:14:43;;;;;;;4.23;2.73;;;20.80;96.80;;;;;;4862546;29;20245;-63
2022/04/27 11:17:11;;;;;;;4.13;2.63;;;19.90;96.40;;;;;;4886676;29;20608;-63
2022/04/27 11:19:41;;;;;;;3.40;2.40;;;19.90;98.10;;;;;;4869456;29;20241;-63
2022/04/27 11:22:13;;;;;;;4.53;2.30;;;20.40;97.50;;;;;;4872908;29;20252;-62
2022/04/27 11:24:42;;;;;;;3.47;2.30;;;20.80;97.00;;;;;;4872735;29;20705;-62
2022/04/27 11:27:10;;;;;;;3.63;2.30;;;21.20;96.80;;;;;;4881836;29;20687;-62
2022/04/27 11:29:38;;;;;;;2.73;2.00;;;21.40;95.50;;;;;;4870585;29;20298;-63
2022/04/27 11:32:08;;;;;;;4.47;2.57;;;21.60;95.30;;;;;;4869302;29;20238;-64
2022/04/27 11:34:37;;;;;;;3.93;2.20;;;21.80;93.90;;;;;;4872723;29;20233;-63
2022/04/27 11:37:17;;;;;;;5.40;2.70;;;21.30;94.10;;;;;;4879083;29;20242;-62
2022/04/27 11:39:46;;;;;;;3.73;2.80;;;19.40;94.50;;;;;;4887065;29;20300;-62
2022/04/27 11:42:16;;;;;;;3.70;2.87;;;18.00;96.50;;;;;;4881163;29;20236;-63
2022/04/27 11:44:51;;;;;;;4.37;3.00;;;17.20;98.20;;;;;;4877684;29;20612;-62
2022/04/27 11:47:30;;;;;;;5.50;2.60;;;16.80;99.20;;;;;;4878596;29;20330;-62
2022/04/27 11:50:00;;;;;;;3.13;2.80;;;16.70;99.70;;;;;;4881716;29;20808;-62
2022/04/27 11:52:31;;;;;;;4.00;2.87;;;16.50;99.90;;;;;;4877100;29;20263;-62
2022/04/27 11:55:02;;;;;;;4.23;3.00;;;16.80;99.90;;;;;;4861694;29;20243;-63
2022/04/27 11:57:30;;;;;;;4.40;2.60;;;17.20;99.90;;;;;;4870314;29;20709;-62
2022/04/27 11:59:58;;;;;;;5.10;3.00;;;17.80;99.70;;;;;;4868125;29;20242;-62
2022/04/27 12:02:42;;;;;;;4.73;3.17;;;17.80;99.70;;;;;;4868629;29;20327;-62
2022/04/27 12:05:10;;;;;;;3.47;3.00;;;17.80;98.30;;;;;;4869106;29;20765;-62
2022/04/27 12:07:40;;;;;;;3.13;2.80;;;17.80;98.50;;;;;;4870444;29;20247;-63
2022/04/27 12:10:11;;;;;;;4.53;2.70;;;17.80;99.10;;;;;;4869355;29;20247;-63
2022/04/27 12:12:39;;;;;;;4.00;2.60;;;18.20;99.20;;;;;;4868388;29;20720;-62
2022/04/27 12:15:11;;;;;;;5.67;2.60;;;18.40;98.40;;;;;;4874155;29;20247;-63
2022/04/27 12:17:48;;;;;;;3.13;2.70;;;18.60;98.70;;;;;;4886590;29;20332;-63
2022/04/27 12:20:38;;;;;;;3.10;2.40;;;18.80;98.30;;;;;;4891348;29;20315;-63
2022/04/27 12:23:09;;;;;;;4.03;2.67;;;19.00;98.00;;;;;;4889057;29;20266;-63
2022/04/27 12:25:43;;;;;;;3.57;2.53;;;19.00;97.40;;;;;;4894099;29;20245;-63
2022/04/27 12:28:14;;;;;;;4.67;2.37;;;18.50;97.80;;;;;;4886298;29;20330;-63
2022/04/27 12:30:49;;;;;;;4.97;2.70;;;18.00;98.50;;;;;;4880677;29;20647;-63
2022/04/27 12:33:20;;;;;;;6.47;3.07;;;18.10;98.80;;;;;;4886518;29;20246;-63
2022/04/27 12:38:57;;;;;;;3.13;2.50;;;17.40;99.90;;;;;;4885007;29;20254;-63
2022/04/27 12:41:32;;;;;;;4.33;3.33;;;18.00;99.20;;;;;;4890939;29;20246;-63
2022/04/27 12:44:05;;;;;;;9.40;2.83;;;17.60;97.80;;;;;;4886481;29;20270;-63
2022/04/27 12:46:58;;;;;;;5.67;2.90;;;17.50;99.60;;;;;;4894243;29;20239;-63
2022/04/27 12:49:27;;;;;;;4.27;3.13;;;18.00;99.70;;;;;;4887780;29;20491;-63
2022/04/27 12:51:57;;;;;;;3.30;3.00;;;18.20;97.80;;;;;;4888394;29;20239;-63
2022/04/27 12:54:36;;;;;;;4.17;3.10;;;17.90;98.50;;;;;;4889365;29;20699;-63
2022/04/27 12:57:06;;;;;;;4.70;3.47;;;17.30;98.90;;;;;;4886200;29;20249;-62
2022/04/27 12:59:53;;;;;;;3.93;3.20;;;17.20;99.80;;;;;;4887744;29;20241;-63
2022/04/27 13:02:21;;;;;;;4.30;3.80;;;16.80;99.90;;;;;;4885657;29;20241;-63
2022/04/27 13:04:50;;;;;;;8.37;3.83;;;16.30;99.90;;;;;;4890100;29;20235;-62
2022/04/27 13:07:18;;;;;;;5.57;4.20;;;16.10;99.90;;;;;;4894656;29;20234;-62
2022/04/27 13:12:36;;;;;;;5.23;4.00;;;16.00;99.90;;;;;;4893167;29;20761;-62
2022/04/27 13:15:05;;;;;;;8.07;3.83;;;15.80;99.90;;;;;;4884458;29;20604;-62
2022/04/27 13:17:33;;;;;;;4.80;3.80;;;15.90;99.90;;;;;;4883945;29;20330;-63
2022/04/27 13:20:03;;;;;;;5.20;4.17;;;15.80;99.90;;;;;;4884585;29;20360;-62
2022/04/27 13:22:32;;;;;;;5.17;4.67;;;15.70;99.90;;;;;;4882445;29;20391;-65
2022/04/27 13:25:02;;;;;;;5.20;4.60;;;15.50;99.90;;;;;;4880300;29;20340;-63
2022/04/27 13:27:33;;;;;;;5.07;4.53;;;15.30;99.90;;;;;;4884043;29;20651;-63
2022/04/27 13:30:07;;;;;;;7.55;5.82;;;15.20;99.90;;;;;;4885040;29;20451;-63
2022/04/27 13:32:36;;;;;;;6.30;5.13;;;14.80;99.90;;;;;;4884887;29;20243;-63
2022/04/27 13:35:04;;;;;;;7.40;5.37;;;14.90;99.90;;;;;;4881221;29;20335;-63
2022/04/27 13:37:32;;;;;;;9.13;5.03;;;15.00;99.90;;;;;;4884531;29;20253;-63
2022/04/27 13:40:02;;;;;;;5.90;5.37;;;15.00;99.90;;;;;;4884030;29;20244;-64
2022/04/27 13:42:30;;;;;;;8.13;5.30;;;15.10;99.90;;;;;;4881157;29;20701;-62
2022/04/27 13:44:59;;;;;;;8.97;5.50;;;15.20;99.90;;;;;;4882295;29;20724;-63